Time;durP1;ratioP1;P1;durP2;ratioP2;P2;SDS_P1;SDS_P2;PMS_P1;PMS_P2;Temp;Humidity;BMP_temperature;BMP_pressure;BME280_temperature;BME280_humidity;BME280_pressure;Samples;Min_cycle;Max_cycle;Signal;HPM_P1;HPM_P2
2021/08/22 00:01:38;;;;;;;11.50;9.70;;;18.60;99.90;;;;;;5043899;28;20621;-93
2021/08/22 00:04:05;;;;;;;11.47;10.30;;;18.60;99.90;;;;;;5054693;28;20646;-93
2021/08/22 00:06:32;;;;;;;10.80;9.90;;;18.70;99.90;;;;;;5063211;28;20626;-94
2021/08/22 00:08:59;;;;;;;10.80;9.80;;;18.80;99.90;;;;;;5061922;28;21148;-92
2021/08/22 00:11:26;;;;;;;9.47;8.77;;;18.80;99.90;;;;;;5057023;28;20704;-93
2021/08/22 00:13:56;;;;;;;10.33;9.43;;;18.90;99.90;;;;;;5046575;28;20617;-93
2021/08/22 00:16:23;;;;;;;9.83;9.13;;;18.80;99.90;;;;;;5055001;28;20745;-94
2021/08/22 00:18:50;;;;;;;11.00;10.00;;;18.90;99.90;;;;;;5059807;28;20693;-93
2021/08/22 00:21:17;;;;;;;9.63;8.70;;;18.90;99.90;;;;;;5063976;28;21005;-93
2021/08/22 00:23:44;;;;;;;9.10;8.30;;;19.00;99.90;;;;;;5063624;28;20669;-92
2021/08/22 00:26:11;;;;;;;10.73;9.83;;;19.00;99.90;;;;;;5057985;28;20615;-95
2021/08/22 00:28:38;;;;;;;9.47;8.67;;;19.00;99.90;;;;;;5046364;28;20713;-93
2021/08/22 00:31:06;;;;;;;10.63;9.73;;;19.10;99.90;;;;;;5046486;28;20635;-93
2021/08/22 00:33:33;;;;;;;12.83;11.67;;;19.10;99.90;;;;;;5044008;28;20741;-93
2021/08/22 00:36:01;;;;;;;9.40;8.57;;;19.10;99.90;;;;;;5040128;28;21019;-93
2021/08/22 00:38:30;;;;;;;11.30;8.23;;;19.10;99.90;;;;;;5034672;28;20657;-91
2021/08/22 00:40:58;;;;;;;12.57;6.93;;;18.90;99.90;;;;;;5040043;28;20694;-93
2021/08/22 00:43:25;;;;;;;8.20;7.50;;;18.40;99.90;;;;;;5049465;28;20634;-93
2021/08/22 00:45:52;;;;;;;6.10;5.50;;;18.10;99.90;;;;;;5060652;28;20642;-93
2021/08/22 00:48:20;;;;;;;7.13;5.60;;;17.90;99.90;;;;;;5062392;28;20655;-93
2021/08/22 00:50:49;;;;;;;7.90;6.50;;;17.80;99.90;;;;;;5064077;28;20634;-94
2021/08/22 00:53:17;;;;;;;8.50;5.27;;;17.70;99.90;;;;;;5067012;28;20626;-94
2021/08/22 00:55:44;;;;;;;5.70;5.30;;;17.70;99.90;;;;;;5063060;28;20666;-94
2021/08/22 00:58:11;;;;;;;5.10;4.27;;;17.60;99.90;;;;;;5044231;28;20655;-93
2021/08/22 01:00:41;;;;;;;4.47;4.00;;;17.50;99.90;;;;;;5037598;28;20677;-96
2021/08/22 01:03:15;;;;;;;5.53;5.13;;;17.50;99.90;;;;;;5044792;28;20623;-94
2021/08/22 01:05:50;;;;;;;5.17;4.77;;;17.40;99.90;;;;;;5043963;28;20653;-96
2021/08/22 01:08:25;;;;;;;5.23;4.30;;;17.30;99.90;;;;;;5046732;28;20625;-95
2021/08/22 01:10:57;;;;;;;5.40;5.00;;;17.20;99.90;;;;;;5039136;28;20691;-94
2021/08/22 01:13:26;;;;;;;5.50;4.37;;;17.20;99.90;;;;;;5046465;28;21167;-95
2021/08/22 01:15:57;;;;;;;5.27;4.80;;;17.20;99.90;;;;;;5046788;28;21094;-95
2021/08/22 01:18:28;;;;;;;4.33;4.03;;;17.10;99.90;;;;;;5046964;28;20664;-95
2021/08/22 01:21:22;;;;;;;4.27;3.97;;;17.10;99.90;;;;;;5059290;28;20664;-95
2021/08/22 01:23:53;;;;;;;5.30;4.90;;;17.10;99.90;;;;;;5049268;28;20629;-95
2021/08/22 01:26:25;;;;;;;4.67;4.37;;;17.10;99.90;;;;;;5038831;28;20626;-94
2021/08/22 01:28:53;;;;;;;5.50;5.10;;;17.10;99.90;;;;;;5047319;28;20732;-95
2021/08/22 01:31:24;;;;;;;5.57;4.87;;;17.10;99.90;;;;;;5046501;28;20668;-95
2021/08/22 01:33:55;;;;;;;5.13;4.83;;;17.10;99.90;;;;;;5035587;28;20637;-94
2021/08/22 01:36:24;;;;;;;4.90;4.50;;;17.10;99.90;;;;;;5035548;28;20654;-95
2021/08/22 01:38:52;;;;;;;4.90;4.50;;;17.10;99.90;;;;;;5029701;28;20629;-94
2021/08/22 01:41:22;;;;;;;5.03;4.63;;;17.00;99.90;;;;;;5022280;28;20702;-94
2021/08/22 01:43:50;;;;;;;5.10;4.70;;;16.90;99.90;;;;;;5031827;28;20665;-94
2021/08/22 01:46:19;;;;;;;5.53;5.03;;;16.90;99.90;;;;;;5027899;28;20655;-94
2021/08/22 01:48:47;;;;;;;6.17;5.57;;;16.90;99.90;;;;;;5026214;28;20645;-93
2021/08/22 01:51:16;;;;;;;5.47;4.97;;;16.90;99.90;;;;;;5038767;28;20706;-94
2021/08/22 01:53:43;;;;;;;5.30;4.00;;;16.90;99.90;;;;;;5043934;28;20676;-94
2021/08/22 01:56:10;;;;;;;5.27;4.93;;;16.90;99.90;;;;;;5028274;28;20665;-94
2021/08/22 01:58:37;;;;;;;5.10;4.60;;;16.90;99.90;;;;;;5023558;28;20746;-94
2021/08/22 02:01:04;;;;;;;5.80;5.30;;;16.80;99.90;;;;;;5026317;28;20766;-93
2021/08/22 02:03:39;;;;;;;5.60;5.20;;;16.90;99.90;;;;;;5025637;28;20642;-95
2021/08/22 02:06:10;;;;;;;5.37;4.87;;;16.90;99.90;;;;;;5031248;28;20629;-94
2021/08/22 02:08:41;;;;;;;6.13;5.30;;;16.90;99.90;;;;;;5028723;28;20591;-94
2021/08/22 02:11:18;;;;;;;5.47;4.60;;;16.90;99.90;;;;;;5017874;28;20669;-94
2021/08/22 02:13:47;;;;;;;5.83;5.33;;;16.90;99.90;;;;;;5028430;28;20732;-95
2021/08/22 02:16:20;;;;;;;8.97;5.90;;;16.90;99.90;;;;;;5025282;28;20661;-95
2021/08/22 02:18:47;;;;;;;5.63;5.23;;;16.90;99.90;;;;;;5027907;28;20645;-94
2021/08/22 02:21:21;;;;;;;5.73;5.33;;;16.90;99.90;;;;;;5031294;28;20661;-94
2021/08/22 02:23:52;;;;;;;5.60;5.10;;;16.90;99.90;;;;;;5029488;28;20634;-94
2021/08/22 02:26:19;;;;;;;6.03;4.80;;;17.00;99.90;;;;;;5023634;28;20650;-94
2021/08/22 02:28:54;;;;;;;5.63;5.23;;;17.00;99.90;;;;;;5027336;28;20635;-94
2021/08/22 02:31:21;;;;;;;5.47;4.97;;;17.00;99.90;;;;;;5024978;28;20665;-93
2021/08/22 02:33:48;;;;;;;5.60;5.20;;;16.90;99.90;;;;;;5020829;28;20633;-93
2021/08/22 02:36:15;;;;;;;5.47;4.97;;;16.90;99.90;;;;;;5022593;28;20695;-93
2021/08/22 02:38:43;;;;;;;6.17;5.57;;;16.90;99.90;;;;;;5026871;28;21074;-94
2021/08/22 02:41:11;;;;;;;5.10;4.80;;;17.00;99.90;;;;;;5024775;28;20666;-93
2021/08/22 02:43:40;;;;;;;5.70;5.20;;;17.00;99.90;;;;;;5030092;28;20660;-94
2021/08/22 02:46:07;;;;;;;5.20;4.70;;;17.00;99.90;;;;;;5022109;28;20612;-93
2021/08/22 02:48:34;;;;;;;6.43;5.57;;;17.00;99.90;;;;;;5023033;28;20627;-93
2021/08/22 02:51:04;;;;;;;5.90;5.50;;;17.00;99.90;;;;;;5029127;28;20754;-94
2021/08/22 02:53:31;;;;;;;5.73;5.30;;;17.00;99.90;;;;;;5029344;28;20696;-93
2021/08/22 02:55:58;;;;;;;6.40;5.80;;;17.00;99.90;;;;;;5028631;28;20630;-93
2021/08/22 02:58:26;;;;;;;7.93;6.70;;;17.00;99.90;;;;;;5035382;28;20669;-93
2021/08/22 03:00:53;;;;;;;6.57;6.00;;;16.90;99.90;;;;;;5031029;28;20654;-93
2021/08/22 03:03:22;;;;;;;7.80;6.53;;;16.90;99.90;;;;;;5036072;28;21328;-94
2021/08/22 03:05:48;;;;;;;6.90;6.30;;;17.00;99.90;;;;;;5025732;28;21190;-94
2021/08/22 03:08:17;;;;;;;6.20;5.70;;;17.00;99.90;;;;;;5022644;28;20631;-94
2021/08/22 03:10:47;;;;;;;7.10;6.50;;;16.80;99.90;;;;;;5028871;28;20659;-94
2021/08/22 03:13:14;;;;;;;7.70;6.93;;;16.90;99.90;;;;;;5025473;28;20634;-95
2021/08/22 03:15:43;;;;;;;7.93;7.13;;;16.80;99.90;;;;;;5028266;28;20647;-94
2021/08/22 03:18:10;;;;;;;7.10;6.50;;;16.80;99.90;;;;;;5026591;28;20657;-94
2021/08/22 03:20:37;;;;;;;7.23;6.70;;;16.80;99.90;;;;;;5022174;28;20670;-95
2021/08/22 03:23:04;;;;;;;7.33;6.83;;;16.80;99.90;;;;;;5022488;28;20616;-94
2021/08/22 03:25:31;;;;;;;7.97;7.20;;;16.80;99.90;;;;;;5021965;28;20688;-95
2021/08/22 03:27:58;;;;;;;10.23;6.47;;;16.70;99.90;;;;;;5022161;28;20666;-93
2021/08/22 03:30:25;;;;;;;7.60;7.10;;;16.80;99.90;;;;;;5024856;28;20651;-94
2021/08/22 03:32:53;;;;;;;6.80;6.30;;;16.70;99.90;;;;;;5024361;28;20631;-92
2021/08/22 03:35:20;;;;;;;8.20;7.40;;;16.80;99.90;;;;;;5016733;28;20924;-92
2021/08/22 03:37:47;;;;;;;7.80;7.20;;;16.90;99.90;;;;;;5023954;28;20663;-92
2021/08/22 03:40:15;;;;;;;9.13;7.50;;;16.90;99.90;;;;;;5023031;28;20737;-93
2021/08/22 03:42:42;;;;;;;8.70;7.67;;;16.90;99.90;;;;;;5020673;28;20714;-92
2021/08/22 03:45:10;;;;;;;10.10;7.27;;;16.90;99.90;;;;;;5022600;28;20612;-94
2021/08/22 03:47:45;;;;;;;8.47;7.70;;;16.90;99.90;;;;;;5018251;28;20615;-93
2021/08/22 03:50:13;;;;;;;8.83;7.83;;;16.90;99.90;;;;;;5019734;28;20665;-92
2021/08/22 03:52:41;;;;;;;9.50;8.57;;;16.90;99.90;;;;;;5026224;28;20615;-93
2021/08/22 03:55:16;;;;;;;8.77;7.90;;;16.90;99.90;;;;;;5032540;28;21151;-91
2021/08/22 03:57:42;;;;;;;8.53;7.83;;;16.90;99.90;;;;;;5032687;28;20662;-92
2021/08/22 04:00:17;;;;;;;9.07;8.40;;;16.90;99.90;;;;;;5044674;28;20654;-92
2021/08/22 04:02:55;;;;;;;8.67;8.07;;;17.00;99.90;;;;;;5040105;28;20711;-93
2021/08/22 04:05:23;;;;;;;8.97;8.20;;;17.00;99.90;;;;;;5036642;28;20608;-93
2021/08/22 04:07:53;;;;;;;8.43;7.73;;;17.00;99.90;;;;;;5041228;28;20625;-92
2021/08/22 04:10:20;;;;;;;9.27;8.47;;;17.00;99.90;;;;;;5027508;28;20638;-92
2021/08/22 04:12:46;;;;;;;10.57;9.20;;;17.00;99.90;;;;;;5026832;28;20623;-92
2021/08/22 04:15:24;;;;;;;9.60;8.80;;;17.00;99.90;;;;;;5026386;28;20626;-92
2021/08/22 04:17:52;;;;;;;9.60;8.80;;;17.00;99.90;;;;;;5022006;28;20661;-92
2021/08/22 04:20:19;;;;;;;8.50;7.83;;;17.00;99.90;;;;;;5020925;28;20665;-91
2021/08/22 04:22:47;;;;;;;9.33;8.63;;;17.00;99.90;;;;;;5023149;28;20592;-92
2021/08/22 04:25:14;;;;;;;11.20;8.77;;;16.90;99.90;;;;;;5023995;28;20613;-92
2021/08/22 04:27:42;;;;;;;9.27;8.37;;;17.00;99.90;;;;;;5018697;28;20628;-93
2021/08/22 04:30:11;;;;;;;9.70;8.83;;;17.00;99.90;;;;;;5020076;28;20659;-92
2021/08/22 04:32:45;;;;;;;10.43;9.43;;;17.00;99.90;;;;;;5023682;28;20627;-92
2021/08/22 04:35:13;;;;;;;10.43;9.53;;;17.00;99.90;;;;;;5020517;28;20638;-92
2021/08/22 04:37:47;;;;;;;10.07;9.13;;;17.10;99.90;;;;;;5022079;28;20869;-93
2021/08/22 04:40:15;;;;;;;10.83;9.80;;;17.00;99.90;;;;;;5025890;28;21214;-93
2021/08/22 04:42:42;;;;;;;8.77;8.17;;;17.00;99.90;;;;;;5030461;28;20642;-92
2021/08/22 04:45:09;;;;;;;8.77;7.97;;;17.10;99.90;;;;;;5042329;28;20631;-92
2021/08/22 04:47:37;;;;;;;9.07;8.27;;;17.00;99.90;;;;;;5040224;28;20630;-93
2021/08/22 04:50:08;;;;;;;10.40;9.60;;;17.00;99.90;;;;;;5024995;28;20653;-94
2021/08/22 04:52:35;;;;;;;10.30;9.40;;;17.10;99.90;;;;;;5024392;28;20615;-92
2021/08/22 04:55:07;;;;;;;9.10;8.30;;;17.10;99.90;;;;;;5016992;28;20628;-93
2021/08/22 04:57:34;;;;;;;8.60;7.90;;;17.10;99.90;;;;;;5019267;28;20673;-92
2021/08/22 05:00:01;;;;;;;9.53;8.73;;;17.20;99.90;;;;;;5022942;28;20662;-91
2021/08/22 05:02:28;;;;;;;9.20;8.47;;;17.20;99.90;;;;;;5022249;28;20630;-93
2021/08/22 05:04:55;;;;;;;8.63;8.03;;;17.20;99.90;;;;;;5024778;28;20638;-93
2021/08/22 05:07:21;;;;;;;8.63;7.90;;;17.20;99.90;;;;;;5024599;28;20623;-93
2021/08/22 05:09:48;;;;;;;11.30;7.97;;;17.30;99.90;;;;;;5028247;28;20666;-92
2021/08/22 05:12:18;;;;;;;7.80;7.20;;;17.20;99.90;;;;;;5043852;28;20606;-92
2021/08/22 05:14:45;;;;;;;8.70;8.00;;;17.20;99.90;;;;;;5049592;28;20614;-92
2021/08/22 05:17:12;;;;;;;8.90;8.23;;;17.20;99.90;;;;;;5048868;28;20655;-91
2021/08/22 05:19:39;;;;;;;8.13;7.43;;;17.20;99.90;;;;;;5032615;28;21352;-92
2021/08/22 05:22:06;;;;;;;8.30;7.60;;;17.20;99.90;;;;;;5026796;28;20644;-91
2021/08/22 05:24:33;;;;;;;7.70;6.83;;;17.20;99.90;;;;;;5029715;28;20634;-92
2021/08/22 05:26:59;;;;;;;8.00;7.30;;;17.20;99.90;;;;;;5023699;28;20620;-92
2021/08/22 05:29:28;;;;;;;8.20;7.60;;;17.20;99.90;;;;;;5024768;28;20632;-92
2021/08/22 05:31:55;;;;;;;8.80;8.10;;;17.20;99.90;;;;;;5019840;28;20635;-92
2021/08/22 05:34:23;;;;;;;7.63;7.03;;;17.30;99.90;;;;;;5027499;28;20649;-92
2021/08/22 05:36:50;;;;;;;8.87;8.17;;;17.30;99.90;;;;;;5022659;28;20610;-93
2021/08/22 05:39:17;;;;;;;7.83;7.13;;;17.40;99.90;;;;;;5025115;28;20677;-90
2021/08/22 05:41:44;;;;;;;9.17;8.37;;;17.30;99.90;;;;;;5027444;28;20633;-90
2021/08/22 05:44:11;;;;;;;7.73;7.23;;;17.20;99.90;;;;;;5028154;28;20637;-90
2021/08/22 05:46:40;;;;;;;8.90;8.20;;;17.30;99.90;;;;;;5030383;28;20622;-91
2021/08/22 05:49:07;;;;;;;7.87;7.07;;;17.30;99.90;;;;;;5026632;28;20626;-91
2021/08/22 05:51:34;;;;;;;7.90;7.00;;;17.40;99.90;;;;;;5023246;28;20657;-92
2021/08/22 05:54:01;;;;;;;7.20;6.50;;;17.40;99.90;;;;;;5024910;28;20701;-92
2021/08/22 05:56:28;;;;;;;6.50;5.80;;;17.50;99.90;;;;;;5028732;28;20627;-91
2021/08/22 05:58:55;;;;;;;9.33;5.53;;;17.50;99.90;;;;;;5029773;28;20666;-91
2021/08/22 06:01:21;;;;;;;8.13;5.20;;;17.50;99.90;;;;;;5026314;28;20661;-92
2021/08/22 06:03:50;;;;;;;5.60;5.03;;;17.50;99.90;;;;;;5028397;28;20635;-91
2021/08/22 06:06:17;;;;;;;7.43;5.90;;;17.60;99.90;;;;;;5030444;28;20583;-91
2021/08/22 06:08:43;;;;;;;5.43;5.03;;;17.60;99.90;;;;;;5025402;28;20622;-93
2021/08/22 06:11:10;;;;;;;8.50;5.80;;;17.70;99.90;;;;;;5019762;28;20639;-94
2021/08/22 06:13:42;;;;;;;5.10;4.70;;;17.80;99.90;;;;;;5027268;28;21269;-94
2021/08/22 06:16:08;;;;;;;6.40;5.70;;;17.90;99.90;;;;;;5023907;28;21171;-94
2021/08/22 06:18:36;;;;;;;6.00;5.53;;;18.00;99.90;;;;;;5034833;28;20663;-95
2021/08/22 06:21:12;;;;;;;6.60;5.50;;;18.20;99.90;;;;;;5025303;28;20661;-96
2021/08/22 06:23:39;;;;;;;5.73;5.23;;;18.20;99.90;;;;;;5036482;28;20737;-96
2021/08/22 06:26:06;;;;;;;5.73;5.23;;;18.30;99.90;;;;;;5036283;28;20630;-96
2021/08/22 06:28:33;;;;;;;6.37;5.77;;;18.30;99.90;;;;;;5036615;28;20722;-96
2021/08/22 06:30:59;;;;;;;5.43;4.93;;;18.40;99.90;;;;;;5037702;28;20757;-96
2021/08/22 06:33:26;;;;;;;7.83;5.63;;;18.40;99.90;;;;;;5037054;28;20665;-96
2021/08/22 06:36:03;;;;;;;6.00;4.80;;;18.50;99.90;;;;;;5042047;28;20634;-96
2021/08/22 06:38:32;;;;;;;6.03;5.20;;;18.60;99.90;;;;;;5042763;28;20724;-96
2021/08/22 06:40:59;;;;;;;6.60;4.60;;;18.70;99.90;;;;;;5042658;28;20662;-96
2021/08/22 06:43:31;;;;;;;6.03;5.33;;;18.60;99.90;;;;;;5036502;28;20632;-96
2021/08/22 06:46:15;;;;;;;7.03;5.43;;;18.80;99.90;;;;;;5044646;28;20680;-96
2021/08/22 06:48:42;;;;;;;5.20;4.80;;;18.80;99.90;;;;;;5034049;28;20642;-94
2021/08/22 06:51:09;;;;;;;5.30;4.80;;;18.80;99.90;;;;;;5020773;28;20667;-94
2021/08/22 06:53:37;;;;;;;6.27;4.97;;;18.80;99.90;;;;;;5024595;28;20627;-94
2021/08/22 06:58:52;;;;;;;6.83;5.73;;;18.60;99.90;;;;;;5033708;28;20651;-96
2021/08/22 07:01:20;;;;;;;6.17;5.50;;;18.60;99.90;;;;;;5035695;28;20838;-95
2021/08/22 07:03:53;;;;;;;5.17;4.77;;;18.60;99.90;;;;;;5024906;28;20641;-96
2021/08/22 07:06:28;;;;;;;7.30;5.33;;;18.60;99.90;;;;;;5029806;28;20644;-95
2021/08/22 07:09:01;;;;;;;5.80;5.37;;;18.60;99.90;;;;;;5023363;28;20647;-91
2021/08/22 07:11:27;;;;;;;5.23;4.73;;;18.70;99.90;;;;;;5022591;28;20665;-91
2021/08/22 07:13:54;;;;;;;4.90;4.60;;;18.90;99.90;;;;;;5023964;28;20642;-90
2021/08/22 07:16:21;;;;;;;6.60;5.30;;;19.00;99.90;;;;;;5031386;28;21170;-90
2021/08/22 07:18:48;;;;;;;6.90;5.23;;;19.00;99.90;;;;;;5019054;28;20682;-91
2021/08/22 07:21:14;;;;;;;5.80;4.73;;;19.10;99.90;;;;;;5023069;28;20647;-91
2021/08/22 07:23:43;;;;;;;5.67;5.27;;;19.10;99.90;;;;;;5022623;28;20645;-90
2021/08/22 07:26:11;;;;;;;6.50;4.50;;;19.30;99.90;;;;;;5022251;28;20611;-91
2021/08/22 07:28:39;;;;;;;5.60;5.10;;;19.30;99.90;;;;;;5022977;28;20623;-91
2021/08/22 07:31:06;;;;;;;4.80;4.40;;;19.40;99.90;;;;;;5016648;28;20678;-91
2021/08/22 07:33:33;;;;;;;7.87;4.73;;;19.50;99.90;;;;;;5017824;28;20643;-91
2021/08/22 07:36:01;;;;;;;5.27;4.77;;;19.50;99.90;;;;;;5026096;28;20754;-91
2021/08/22 07:38:28;;;;;;;7.07;5.70;;;19.50;99.90;;;;;;5022710;28;20765;-91
2021/08/22 07:40:55;;;;;;;5.00;4.50;;;19.60;99.90;;;;;;5025718;28;20659;-91
2021/08/22 07:43:24;;;;;;;6.73;5.30;;;19.60;99.90;;;;;;5026772;28;20619;-91
2021/08/22 07:45:51;;;;;;;5.10;4.70;;;19.50;99.90;;;;;;5033898;28;20582;-91
2021/08/22 07:48:18;;;;;;;6.43;5.30;;;19.70;99.90;;;;;;5025062;28;20632;-90
2021/08/22 07:50:45;;;;;;;5.83;5.33;;;19.80;99.90;;;;;;5028521;28;20719;-91
2021/08/22 07:53:14;;;;;;;5.63;5.03;;;19.90;99.90;;;;;;5033683;28;20759;-91
2021/08/22 07:55:41;;;;;;;6.87;6.20;;;19.90;99.90;;;;;;5020572;28;20631;-91
2021/08/22 07:58:08;;;;;;;5.27;4.87;;;19.90;99.90;;;;;;5024632;28;20671;-90
2021/08/22 08:00:38;;;;;;;12.23;6.07;;;20.00;99.90;;;;;;5026393;28;20642;-91
2021/08/22 08:03:04;;;;;;;6.27;4.53;;;20.10;99.90;;;;;;5024941;28;20598;-91
2021/08/22 08:05:32;;;;;;;5.57;5.10;;;20.30;99.90;;;;;;5026256;28;20624;-90
2021/08/22 08:08:00;;;;;;;7.93;4.77;;;20.30;99.90;;;;;;5029943;28;20721;-95
2021/08/22 08:10:27;;;;;;;5.47;4.67;;;20.30;99.90;;;;;;5024336;28;20689;-93
2021/08/22 08:12:54;;;;;;;4.90;4.50;;;20.50;99.90;;;;;;5025303;28;20641;-93
2021/08/22 08:15:21;;;;;;;4.00;3.70;;;20.70;99.90;;;;;;5015867;28;20637;-93
2021/08/22 08:17:49;;;;;;;5.70;4.90;;;20.70;99.90;;;;;;5022560;28;20639;-93
2021/08/22 08:20:16;;;;;;;4.07;3.67;;;20.80;99.90;;;;;;5026263;28;20659;-93
2021/08/22 08:22:43;;;;;;;4.97;4.57;;;20.90;99.90;;;;;;5024737;28;20630;-93
2021/08/22 08:25:11;;;;;;;4.63;4.33;;;21.00;99.90;;;;;;5025238;28;21176;-93
2021/08/22 08:27:37;;;;;;;5.80;5.07;;;20.90;99.90;;;;;;5026015;28;20952;-93
2021/08/22 08:30:13;;;;;;;5.23;4.13;;;21.00;99.90;;;;;;5020359;28;20655;-93
2021/08/22 08:32:40;;;;;;;4.93;4.50;;;21.10;99.90;;;;;;5018840;28;20964;-93
2021/08/22 08:35:10;;;;;;;4.90;3.80;;;21.10;99.90;;;;;;5021800;28;20611;-93
2021/08/22 08:37:37;;;;;;;4.90;4.50;;;21.10;99.90;;;;;;5039962;28;20606;-94
2021/08/22 08:40:05;;;;;;;6.47;4.97;;;21.20;99.90;;;;;;5039929;28;20699;-94
2021/08/22 08:42:32;;;;;;;5.33;4.83;;;21.40;99.90;;;;;;5032772;28;20624;-93
2021/08/22 08:44:59;;;;;;;4.40;4.10;;;21.60;99.90;;;;;;5032360;28;20644;-94
2021/08/22 08:47:26;;;;;;;4.27;3.87;;;21.70;99.90;;;;;;5030667;28;20644;-94
2021/08/22 08:49:57;;;;;;;6.50;3.80;;;21.80;99.90;;;;;;5031509;28;21374;-93
2021/08/22 08:52:33;;;;;;;4.87;4.17;;;21.90;99.90;;;;;;5029796;28;21261;-93
2021/08/22 08:55:02;;;;;;;4.47;4.07;;;21.90;99.90;;;;;;5028270;28;20619;-93
2021/08/22 08:57:30;;;;;;;4.27;3.70;;;22.00;99.90;;;;;;5031523;28;20627;-92
2021/08/22 08:59:57;;;;;;;4.53;4.10;;;21.90;99.90;;;;;;5028221;28;20769;-93
2021/08/22 09:02:23;;;;;;;6.20;4.77;;;21.80;99.90;;;;;;5023169;28;20654;-93
2021/08/22 09:04:52;;;;;;;5.27;4.17;;;21.70;99.90;;;;;;5030012;28;20726;-94
2021/08/22 09:08:03;;;;;;;4.87;4.40;;;21.70;99.90;;;;;;5024286;28;20641;-93
2021/08/22 09:11:09;;;;;;;4.80;4.40;;;21.80;99.90;;;;;;5026662;28;20666;-93
2021/08/22 09:14:10;;;;;;;5.17;4.77;;;21.90;99.90;;;;;;4993174;28;20638;-93
2021/08/22 09:17:13;;;;;;;4.67;3.73;;;21.90;99.90;;;;;;5025754;28;21213;-93
2021/08/22 09:20:29;;;;;;;4.73;4.33;;;21.80;99.90;;;;;;5016660;28;21384;-93
2021/08/22 09:23:41;;;;;;;3.97;3.63;;;21.70;99.90;;;;;;5020795;28;20627;-93
2021/08/22 09:26:41;;;;;;;4.83;4.17;;;21.60;99.90;;;;;;5022326;28;20651;-93
2021/08/22 09:29:42;;;;;;;3.97;3.60;;;21.80;99.90;;;;;;5022710;28;20626;-93
2021/08/22 09:33:02;;;;;;;5.60;5.20;;;22.20;99.90;;;;;;5031310;28;21787;-93
2021/08/22 09:36:11;;;;;;;4.27;3.87;;;22.60;99.90;;;;;;4950813;28;21598;-93
2021/08/22 09:39:15;;;;;;;4.80;4.23;;;23.20;99.90;;;;;;4951776;28;20677;-93
2021/08/22 09:42:18;;;;;;;4.77;4.37;;;23.80;99.90;;;;;;5024892;28;20626;-94
2021/08/22 09:45:22;;;;;;;4.67;4.27;;;24.00;99.90;;;;;;5028568;28;20630;-93
2021/08/22 09:48:22;;;;;;;4.37;3.97;;;23.60;99.90;;;;;;5027225;28;21257;-93
2021/08/22 09:51:22;;;;;;;3.90;3.60;;;23.30;99.90;;;;;;5018105;28;20685;-93
2021/08/22 09:54:47;;;;;;;4.50;4.10;;;23.30;99.90;;;;;;5022796;28;20598;-94
2021/08/22 09:57:58;;;;;;;5.07;4.57;;;23.20;99.90;;;;;;5027394;28;21187;-93
2021/08/22 10:01:04;;;;;;;4.33;3.93;;;22.90;99.90;;;;;;4986550;28;20773;-94
2021/08/22 10:04:05;;;;;;;4.90;4.50;;;22.90;99.90;;;;;;5021617;28;21310;-94
2021/08/22 10:06:53;;;;;;;4.33;4.03;;;23.10;99.90;;;;;;5020345;28;20639;-93
2021/08/22 10:09:21;;;;;;;5.00;4.60;;;23.10;99.90;;;;;;5018157;28;21179;-92
2021/08/22 10:11:54;;;;;;;4.80;4.33;;;23.20;99.90;;;;;;5023132;28;20757;-93
2021/08/22 10:14:25;;;;;;;4.47;4.10;;;23.20;99.90;;;;;;5022458;28;20726;-92
2021/08/22 10:16:52;;;;;;;5.80;3.97;;;23.20;99.90;;;;;;5019880;28;20630;-93
2021/08/22 10:19:23;;;;;;;4.60;4.20;;;22.80;99.90;;;;;;5019283;28;20687;-93
2021/08/22 10:22:11;;;;;;;4.93;4.53;;;22.60;99.90;;;;;;5018428;28;20625;-93
2021/08/22 10:24:55;;;;;;;4.90;4.50;;;22.50;99.90;;;;;;5024611;28;20624;-92
2021/08/22 10:27:58;;;;;;;5.20;4.80;;;22.50;99.90;;;;;;5045647;28;20699;-93
2021/08/22 10:30:27;;;;;;;5.17;4.77;;;22.30;99.90;;;;;;5039280;28;20644;-93
2021/08/22 10:33:11;;;;;;;5.97;5.47;;;22.20;99.90;;;;;;5030304;28;20635;-92
2021/08/22 10:35:38;;;;;;;4.83;4.43;;;22.40;99.90;;;;;;5021225;28;20638;-93
2021/08/22 10:38:20;;;;;;;5.07;4.67;;;22.00;99.90;;;;;;5022245;28;20635;-93
2021/08/22 10:40:48;;;;;;;5.17;4.67;;;21.90;99.90;;;;;;5021736;28;20671;-93
2021/08/22 10:43:41;;;;;;;5.83;5.13;;;21.80;99.90;;;;;;5014816;28;21201;-93
2021/08/22 10:46:10;;;;;;;4.70;4.00;;;21.70;99.90;;;;;;5019989;28;20627;-94
2021/08/22 10:48:52;;;;;;;8.93;5.10;;;21.60;99.90;;;;;;5027623;28;20677;-93
2021/08/22 10:51:20;;;;;;;4.90;4.50;;;21.80;99.90;;;;;;5030816;28;20634;-92
2021/08/22 10:53:51;;;;;;;4.97;4.57;;;21.70;99.90;;;;;;5032786;28;20643;-93
2021/08/22 10:56:39;;;;;;;5.30;4.50;;;21.80;99.90;;;;;;5020939;28;20642;-94
2021/08/22 10:59:09;;;;;;;4.73;4.33;;;21.70;99.90;;;;;;5025835;28;20675;-93
2021/08/22 11:01:38;;;;;;;6.40;5.90;;;21.60;99.90;;;;;;5027397;28;21252;-93
2021/08/22 11:04:07;;;;;;;6.80;6.10;;;21.50;99.90;;;;;;5022451;28;21190;-93
2021/08/22 11:06:34;;;;;;;6.20;5.70;;;21.50;99.90;;;;;;5029297;28;20657;-93
2021/08/22 11:09:01;;;;;;;5.53;5.07;;;21.40;99.90;;;;;;5023887;28;20659;-92
2021/08/22 11:11:28;;;;;;;6.37;5.87;;;21.50;99.90;;;;;;5024360;28;20662;-94
2021/08/22 11:13:56;;;;;;;5.67;5.17;;;21.60;99.90;;;;;;5021022;28;20635;-93
2021/08/22 11:16:45;;;;;;;5.93;5.33;;;21.50;99.90;;;;;;5022057;28;20619;-92
2021/08/22 11:19:12;;;;;;;5.03;4.63;;;21.50;99.90;;;;;;5016808;28;20781;-92
2021/08/22 11:21:40;;;;;;;7.17;5.73;;;21.40;99.90;;;;;;5034780;28;20722;-92
2021/08/22 11:24:07;;;;;;;7.20;6.60;;;21.30;99.90;;;;;;5046968;28;20671;-93
2021/08/22 11:26:34;;;;;;;7.30;6.70;;;21.10;99.90;;;;;;5040739;28;20707;-93
2021/08/22 11:29:02;;;;;;;7.27;6.67;;;21.00;99.90;;;;;;5041562;28;20647;-93
2021/08/22 11:31:30;;;;;;;6.87;6.07;;;20.80;99.90;;;;;;5026993;28;20615;-93
2021/08/22 11:34:13;;;;;;;8.50;7.60;;;20.60;99.90;;;;;;5032437;28;20615;-93
2021/08/22 11:36:40;;;;;;;7.83;6.10;;;20.40;99.90;;;;;;5038311;28;20635;-93
2021/08/22 11:39:12;;;;;;;5.13;4.70;;;20.30;99.90;;;;;;5018406;28;20674;-94
2021/08/22 11:41:42;;;;;;;5.20;4.73;;;20.00;99.90;;;;;;5027993;28;20645;-93
2021/08/22 11:44:09;;;;;;;2.50;2.30;;;20.00;99.90;;;;;;5022656;28;20628;-94
2021/08/22 11:46:37;;;;;;;2.30;2.10;;;19.70;99.90;;;;;;5027192;28;20641;-93
2021/08/22 11:49:11;;;;;;;2.40;2.20;;;19.70;99.90;;;;;;5022441;28;21020;-93
2021/08/22 11:51:38;;;;;;;2.80;2.60;;;19.70;99.90;;;;;;5019141;28;20610;-94
2021/08/22 11:54:05;;;;;;;2.40;2.20;;;19.70;99.90;;;;;;5020140;28;20963;-93
2021/08/22 11:56:32;;;;;;;2.80;2.20;;;19.60;99.90;;;;;;5019403;28;20607;-92
2021/08/22 11:58:59;;;;;;;1.73;1.63;;;19.50;99.90;;;;;;5024391;28;20658;-92
2021/08/22 12:01:27;;;;;;;1.63;1.53;;;19.30;99.90;;;;;;5024395;28;20634;-92
2021/08/22 12:03:58;;;;;;;2.43;1.57;;;19.40;99.90;;;;;;5021117;28;20637;-91
2021/08/22 12:06:28;;;;;;;2.27;1.90;;;19.30;99.90;;;;;;5021905;28;20635;-92
2021/08/22 12:08:55;;;;;;;2.03;1.67;;;19.30;99.90;;;;;;5021880;28;20649;-92
2021/08/22 12:11:23;;;;;;;1.90;1.70;;;19.20;99.90;;;;;;5020563;28;20807;-94
2021/08/22 12:13:51;;;;;;;1.70;1.60;;;19.30;99.90;;;;;;5023750;28;20642;-95
2021/08/22 12:16:28;;;;;;;2.60;2.10;;;19.50;99.90;;;;;;5021745;28;20658;-93
2021/08/22 12:18:56;;;;;;;4.00;2.37;;;19.50;99.90;;;;;;5025961;28;20657;-94
2021/08/22 12:21:24;;;;;;;2.53;2.33;;;19.50;99.90;;;;;;5020622;28;21206;-92
2021/08/22 12:23:54;;;;;;;2.77;1.83;;;19.20;99.90;;;;;;5037012;28;20625;-95
2021/08/22 12:26:22;;;;;;;2.77;2.40;;;19.40;99.90;;;;;;5044317;28;20653;-91
2021/08/22 12:28:51;;;;;;;2.50;1.90;;;19.20;99.90;;;;;;5041521;28;20663;-94
2021/08/22 12:31:19;;;;;;;5.73;2.90;;;19.10;99.90;;;;;;5033753;28;20622;-92
2021/08/22 12:33:49;;;;;;;4.73;2.50;;;19.20;99.90;;;;;;5041819;28;20607;-93
2021/08/22 12:36:18;;;;;;;2.83;2.63;;;19.20;99.90;;;;;;5039340;28;20619;-93
2021/08/22 12:38:48;;;;;;;4.60;4.10;;;19.30;99.90;;;;;;5029669;28;21305;-93
2021/08/22 12:41:40;;;;;;;12.33;9.40;;;19.10;99.90;;;;;;5025250;28;20662;-94
2021/08/22 12:44:09;;;;;;;4.93;3.37;;;19.20;99.90;;;;;;5024919;28;20608;-92
2021/08/22 12:46:37;;;;;;;5.97;4.20;;;19.30;99.90;;;;;;5029637;28;20642;-92
2021/08/22 12:49:06;;;;;;;3.10;2.70;;;19.30;99.90;;;;;;5022084;28;20669;-92
2021/08/22 12:51:34;;;;;;;2.47;2.27;;;19.00;99.90;;;;;;5017958;28;21206;-92
2021/08/22 12:54:02;;;;;;;2.70;2.50;;;19.00;99.90;;;;;;5020779;28;20623;-92
2021/08/22 12:56:29;;;;;;;2.23;2.03;;;19.00;99.90;;;;;;5017501;28;20635;-92
2021/08/22 12:58:57;;;;;;;2.00;1.90;;;18.90;99.90;;;;;;5019625;28;20648;-92
2021/08/22 13:01:26;;;;;;;2.27;2.00;;;18.90;99.90;;;;;;5018160;28;20683;-92
2021/08/22 13:03:54;;;;;;;2.30;2.10;;;18.90;99.90;;;;;;5021563;28;20623;-92
2021/08/22 13:06:21;;;;;;;2.67;2.03;;;18.90;99.90;;;;;;5022947;28;20641;-91
2021/08/22 13:08:48;;;;;;;1.90;1.63;;;18.90;99.90;;;;;;5015466;28;20860;-93
2021/08/22 13:11:15;;;;;;;1.33;1.23;;;18.70;99.90;;;;;;5017465;28;20638;-92